Time;durP1;ratioP1;P1;durP2;ratioP2;P2;SDS_P1;SDS_P2;PMS_P1;PMS_P2;Temp;Humidity;BMP_temperature;BMP_pressure;BME280_temperature;BME280_humidity;BME280_pressure;Samples;Min_cycle;Max_cycle;Signal;HPM_P1;HPM_P2
2023/06/08 00:01:42;;;;;;;1999.90;999.90;;;17.80;99.90;;;;;;5030756;28;20449;-73
2023/06/08 00:06:40;;;;;;;1999.90;999.90;;;18.20;99.90;;;;;;5040949;28;20934;-74
2023/06/08 00:09:09;;;;;;;1999.90;999.90;;;18.10;99.90;;;;;;5050804;28;20445;-73
2023/06/08 00:11:36;;;;;;;1999.90;999.90;;;18.00;99.90;;;;;;5050743;28;20417;-71
2023/06/08 00:14:02;;;;;;;1999.90;999.90;;;18.00;99.90;;;;;;5050992;28;20417;-73
2023/06/08 00:16:29;;;;;;;1999.90;999.90;;;18.70;99.90;;;;;;5048089;28;20931;-74
2023/06/08 00:18:56;;;;;;;1999.90;999.90;;;18.10;99.90;;;;;;5047667;28;20475;-73
2023/06/08 00:21:23;;;;;;;1999.90;999.90;;;18.10;99.90;;;;;;5048677;28;20429;-74
2023/06/08 00:23:50;;;;;;;1999.90;999.90;;;18.00;99.90;;;;;;5048378;28;20440;-73
2023/06/08 00:26:18;;;;;;;1999.90;999.90;;;17.80;99.90;;;;;;5047730;28;20436;-72
2023/06/08 00:28:47;;;;;;;1999.90;999.90;;;17.70;99.90;;;;;;5048581;28;20460;-73
2023/06/08 00:31:15;;;;;;;1999.90;999.90;;;17.80;99.90;;;;;;5047689;28;20850;-73
2023/06/08 00:33:41;;;;;;;1999.90;999.90;;;17.70;99.90;;;;;;5046753;28;20461;-73
2023/06/08 00:36:08;;;;;;;1999.90;999.90;;;17.80;99.90;;;;;;5047257;28;20449;-72
2023/06/08 00:38:35;;;;;;;1999.90;999.90;;;17.90;99.90;;;;;;5047964;28;20483;-73
2023/06/08 00:41:02;;;;;;;1999.90;999.90;;;18.20;99.90;;;;;;5043143;28;20495;-72
2023/06/08 00:43:30;;;;;;;1999.90;999.90;;;18.10;99.90;;;;;;5046980;28;20429;-73
2023/06/08 00:45:57;;;;;;;1999.90;999.90;;;17.90;99.90;;;;;;5044521;28;20855;-74
2023/06/08 00:48:24;;;;;;;1999.90;999.90;;;18.00;99.90;;;;;;5048535;28;20417;-73
2023/06/08 00:50:52;;;;;;;1999.90;999.90;;;18.10;99.90;;;;;;5048190;28;20980;-74
2023/06/08 00:53:19;;;;;;;1999.90;999.90;;;18.00;99.90;;;;;;5048109;28;20441;-74
2023/06/08 00:55:50;;;;;;;1999.90;999.90;;;17.90;99.90;;;;;;5042980;28;20430;-72
2023/06/08 00:58:17;;;;;;;1999.90;999.90;;;18.10;99.90;;;;;;5047945;28;20429;-72
2023/06/08 01:00:46;;;;;;;1999.90;999.90;;;18.20;99.90;;;;;;5048120;28;20437;-73
2023/06/08 01:03:14;;;;;;;1999.90;999.90;;;18.30;99.90;;;;;;5050236;28;20429;-73
2023/06/08 01:05:43;;;;;;;1999.90;999.90;;;18.00;99.90;;;;;;5061819;28;20441;-73
2023/06/08 01:08:20;;;;;;;1999.90;999.90;;;17.80;99.90;;;;;;5062611;28;20437;-74
2023/06/08 01:10:54;;;;;;;1999.90;999.90;;;17.80;99.90;;;;;;5051267;28;20469;-73
2023/06/08 01:13:27;;;;;;;1999.90;999.90;;;17.90;99.90;;;;;;5042292;28;20471;-73
2023/06/08 01:16:01;;;;;;;1999.90;999.90;;;18.00;99.90;;;;;;5047456;28;20464;-73
2023/06/08 01:18:32;;;;;;;1999.90;999.90;;;18.30;99.90;;;;;;5046143;28;20915;-73
2023/06/08 01:21:08;;;;;;;1999.90;999.90;;;18.30;99.90;;;;;;5045331;28;20911;-73
2023/06/08 01:24:12;;;;;;;1999.90;999.90;;;18.10;99.90;;;;;;5047443;28;20441;-73
2023/06/08 01:26:41;;;;;;;1999.90;999.90;;;18.00;99.90;;;;;;5042829;28;20866;-73
2023/06/08 01:29:09;;;;;;;1999.90;999.90;;;18.00;99.90;;;;;;5045436;28;20431;-70
2023/06/08 01:31:36;;;;;;;1999.90;999.90;;;17.90;99.90;;;;;;5046173;28;20850;-73
2023/06/08 01:34:04;;;;;;;1999.90;999.90;;;17.80;99.90;;;;;;5048833;28;20437;-73
2023/06/08 01:36:40;;;;;;;1999.90;999.90;;;17.90;99.90;;;;;;5045436;28;20950;-73
2023/06/08 01:39:13;;;;;;;1999.90;999.90;;;17.90;99.90;;;;;;5048152;28;20429;-73
2023/06/08 01:41:44;;;;;;;1999.90;999.90;;;17.90;99.90;;;;;;5042875;28;20514;-74
2023/06/08 01:44:15;;;;;;;1999.90;999.90;;;17.90;99.90;;;;;;5044980;28;20846;-72
2023/06/08 01:46:49;;;;;;;1999.90;999.90;;;18.00;99.90;;;;;;5052046;28;20501;-72
2023/06/08 01:49:16;;;;;;;1999.90;999.90;;;18.10;99.90;;;;;;5052785;28;20417;-72
2023/06/08 01:51:43;;;;;;;1999.90;999.90;;;18.00;99.90;;;;;;5053842;28;20463;-73
2023/06/08 01:54:10;;;;;;;1999.90;999.90;;;18.10;99.90;;;;;;5053657;28;20432;-71
2023/06/08 01:56:37;;;;;;;1999.90;999.90;;;18.10;99.90;;;;;;5052807;28;20487;-74
2023/06/08 01:59:05;;;;;;;1999.90;999.90;;;18.10;99.90;;;;;;5044718;28;20523;-73
2023/06/08 02:01:31;;;;;;;1999.90;999.90;;;18.00;99.90;;;;;;5040325;28;20635;-72
2023/06/08 02:03:58;;;;;;;1999.90;999.90;;;17.90;99.90;;;;;;5033237;28;20955;-73
2023/06/08 02:06:25;;;;;;;1999.90;999.90;;;17.90;99.90;;;;;;5045152;28;20462;-73
2023/06/08 02:08:51;;;;;;;1999.90;999.90;;;18.00;99.90;;;;;;5053379;28;20417;-74
2023/06/08 02:11:18;;;;;;;1999.90;999.90;;;17.60;99.90;;;;;;5050345;28;20486;-72
2023/06/08 02:13:45;;;;;;;1999.90;999.90;;;17.80;99.90;;;;;;5053283;28;20960;-71
2023/06/08 02:16:13;;;;;;;1999.90;999.90;;;17.80;99.90;;;;;;5045100;28;20427;-75
2023/06/08 02:18:41;;;;;;;1999.90;999.90;;;17.90;99.90;;;;;;5050142;28;20472;-73
2023/06/08 02:21:08;;;;;;;1999.90;999.90;;;18.00;99.90;;;;;;5050799;28;20429;-73
2023/06/08 02:23:35;;;;;;;1999.90;999.90;;;18.00;99.90;;;;;;5051091;28;20433;-73
2023/06/08 02:26:01;;;;;;;1999.90;999.90;;;18.00;99.90;;;;;;5047862;28;20437;-73
2023/06/08 02:28:28;;;;;;;1999.90;999.90;;;17.80;99.90;;;;;;5049950;28;20437;-70
2023/06/08 02:30:55;;;;;;;1999.90;999.90;;;18.00;99.90;;;;;;5050571;28;20540;-74
2023/06/08 02:33:23;;;;;;;1999.90;999.90;;;18.00;99.90;;;;;;5050553;28;20467;-73
2023/06/08 02:35:50;;;;;;;1999.90;999.90;;;17.90;99.90;;;;;;5050739;28;20429;-73
2023/06/08 02:38:17;;;;;;;1999.90;999.90;;;18.10;99.90;;;;;;5048998;28;20467;-72
2023/06/08 02:40:43;;;;;;;1999.90;999.90;;;18.00;99.90;;;;;;5049835;28;20433;-73
2023/06/08 02:43:10;;;;;;;1999.90;999.90;;;18.00;99.90;;;;;;5047784;28;20486;-73
2023/06/08 02:45:37;;;;;;;1999.90;999.90;;;18.00;99.90;;;;;;5050599;28;20873;-73
2023/06/08 02:48:04;;;;;;;1999.90;999.90;;;18.20;99.90;;;;;;5050251;28;20465;-73
2023/06/08 02:50:32;;;;;;;1999.90;999.90;;;18.00;99.90;;;;;;5050808;28;20429;-71
2023/06/08 02:52:59;;;;;;;1999.90;999.90;;;18.00;99.90;;;;;;5050654;28;20491;-75
2023/06/08 02:55:28;;;;;;;1999.90;999.90;;;18.00;99.90;;;;;;5045782;28;20833;-75
2023/06/08 02:57:56;;;;;;;1999.90;999.90;;;17.90;99.90;;;;;;5049743;28;20428;-73
2023/06/08 03:00:23;;;;;;;1999.90;999.90;;;17.70;99.90;;;;;;5048548;28;20811;-73
2023/06/08 03:02:49;;;;;;;1999.90;999.90;;;17.70;99.90;;;;;;5050178;28;20486;-70
2023/06/08 03:05:16;;;;;;;1999.90;999.90;;;17.80;99.90;;;;;;5050061;28;20433;-72
2023/06/08 03:07:44;;;;;;;1999.90;999.90;;;17.70;99.90;;;;;;5049952;28;20434;-75
2023/06/08 03:10:11;;;;;;;1999.90;999.90;;;17.80;99.90;;;;;;5048570;28;20495;-74
2023/06/08 03:12:37;;;;;;;1999.90;999.90;;;18.00;99.90;;;;;;5050236;28;20572;-74
2023/06/08 03:15:05;;;;;;;1999.90;999.90;;;18.00;99.90;;;;;;5050177;28;20511;-73
2023/06/08 03:17:31;;;;;;;1999.90;999.90;;;18.00;99.90;;;;;;5048388;28;20433;-74
2023/06/08 03:19:59;;;;;;;1999.90;999.90;;;17.80;99.90;;;;;;5049727;28;20934;-73
2023/06/08 03:22:26;;;;;;;1999.90;999.90;;;17.90;99.90;;;;;;5048547;28;20429;-74
2023/06/08 03:24:54;;;;;;;1999.90;999.90;;;18.00;99.90;;;;;;5048481;28;20433;-73
2023/06/08 03:27:21;;;;;;;1999.90;999.90;;;18.10;99.90;;;;;;5049360;28;20433;-73
2023/06/08 03:29:47;;;;;;;1999.90;999.90;;;17.90;99.90;;;;;;5049776;28;20439;-72
2023/06/08 03:32:14;;;;;;;1999.90;999.90;;;17.80;99.90;;;;;;5050680;28;20441;-73
2023/06/08 03:34:40;;;;;;;1999.90;999.90;;;17.80;99.90;;;;;;5049769;28;20780;-73
2023/06/08 03:37:07;;;;;;;1999.90;999.90;;;17.80;99.90;;;;;;5049321;28;20483;-72
2023/06/08 03:39:34;;;;;;;1999.90;999.90;;;17.90;99.90;;;;;;5047904;28;20501;-73
2023/06/08 03:42:02;;;;;;;1999.90;999.90;;;17.70;99.90;;;;;;5048693;28;20433;-73
2023/06/08 03:44:28;;;;;;;1999.90;999.90;;;17.70;99.90;;;;;;5048626;28;20494;-73
2023/06/08 03:46:55;;;;;;;1999.90;999.90;;;17.70;99.90;;;;;;5050602;28;20842;-74
2023/06/08 03:49:22;;;;;;;1999.90;999.90;;;18.00;99.90;;;;;;5040607;28;20415;-73
2023/06/08 03:51:48;;;;;;;1999.90;999.90;;;17.80;99.90;;;;;;5040608;28;20413;-73
2023/06/08 03:54:15;;;;;;;1999.90;999.90;;;17.90;99.90;;;;;;5042592;28;20831;-72
2023/06/08 03:56:42;;;;;;;1999.90;999.90;;;18.00;99.90;;;;;;5038083;28;20423;-73
2023/06/08 03:59:10;;;;;;;1999.90;999.90;;;17.90;99.90;;;;;;5030938;28;20500;-73
2023/06/08 04:01:37;;;;;;;1999.90;999.90;;;17.60;99.90;;;;;;5031429;28;20419;-73
2023/06/08 04:04:04;;;;;;;1999.90;999.90;;;17.50;99.90;;;;;;5031617;28;20450;-70
2023/06/08 04:06:33;;;;;;;1999.90;999.90;;;17.40;99.90;;;;;;5042928;28;20481;-73
2023/06/08 04:09:00;;;;;;;1999.90;999.90;;;17.50;99.90;;;;;;5047378;28;20436;-73
2023/06/08 04:11:26;;;;;;;1999.90;999.90;;;17.60;99.90;;;;;;5050299;28;20440;-74
2023/06/08 04:13:53;;;;;;;1999.90;999.90;;;17.70;99.90;;;;;;5036429;28;20423;-72
2023/06/08 04:16:21;;;;;;;1999.90;999.90;;;17.90;99.90;;;;;;5031173;28;20481;-73
2023/06/08 04:18:48;;;;;;;1999.90;999.90;;;18.00;99.90;;;;;;5045390;28;20433;-71
2023/06/08 04:21:14;;;;;;;1999.90;999.90;;;18.10;99.90;;;;;;5046793;28;20436;-72
2023/06/08 04:23:41;;;;;;;1999.90;999.90;;;17.90;99.90;;;;;;5044625;28;21059;-73
2023/06/08 04:26:07;;;;;;;1999.90;999.90;;;17.70;99.90;;;;;;5046232;28;20432;-73
2023/06/08 04:28:35;;;;;;;1999.90;999.90;;;18.00;99.90;;;;;;5049311;28;20437;-72
2023/06/08 04:31:04;;;;;;;1999.90;999.90;;;17.80;99.90;;;;;;5048907;28;20496;-74
2023/06/08 04:33:32;;;;;;;1999.90;999.90;;;17.90;99.90;;;;;;5046958;28;20923;-73
2023/06/08 04:35:59;;;;;;;1999.90;999.90;;;17.90;99.90;;;;;;5047887;28;20495;-70
2023/06/08 04:38:27;;;;;;;1999.90;999.90;;;18.00;99.90;;;;;;5048105;28;20433;-73
2023/06/08 04:40:55;;;;;;;1999.90;999.90;;;18.20;99.90;;;;;;5047064;28;20433;-71
2023/06/08 04:43:25;;;;;;;1999.90;999.90;;;18.10;99.90;;;;;;5048430;28;20472;-73
2023/06/08 04:45:57;;;;;;;1999.90;999.90;;;18.10;99.90;;;;;;5042050;28;20492;-73
2023/06/08 04:48:25;;;;;;;1999.90;999.90;;;18.00;99.90;;;;;;5047361;28;20912;-73
2023/06/08 04:50:53;;;;;;;1999.90;999.90;;;18.20;99.90;;;;;;5041335;28;20939;-71
2023/06/08 04:53:21;;;;;;;1999.90;999.90;;;18.00;99.90;;;;;;5047163;28;20433;-73
2023/06/08 04:55:49;;;;;;;1999.90;999.90;;;17.80;99.90;;;;;;5048222;28;20945;-73
2023/06/08 04:58:15;;;;;;;1999.90;999.90;;;17.80;99.90;;;;;;5048243;28;20429;-73
2023/06/08 05:00:42;;;;;;;1999.90;999.90;;;17.80;99.90;;;;;;5047372;28;20429;-72
2023/06/08 05:03:09;;;;;;;1999.90;999.90;;;17.90;99.90;;;;;;5046045;28;20498;-73
2023/06/08 05:05:36;;;;;;;1999.90;999.90;;;18.00;99.90;;;;;;5048188;28;20463;-74
2023/06/08 05:08:05;;;;;;;1999.90;999.90;;;18.10;99.90;;;;;;5048753;28;20435;-71
2023/06/08 05:10:31;;;;;;;1999.90;999.90;;;18.10;99.90;;;;;;5047362;28;20429;-71
2023/06/08 05:12:58;;;;;;;1999.90;999.90;;;18.20;99.90;;;;;;5048280;28;20903;-74
2023/06/08 05:15:25;;;;;;;1999.90;999.90;;;17.80;99.90;;;;;;5046805;28;20467;-73
2023/06/08 05:17:52;;;;;;;1999.90;999.90;;;18.00;99.90;;;;;;5048237;28;20432;-74
2023/06/08 05:20:19;;;;;;;1999.90;999.90;;;17.90;99.90;;;;;;5046474;28;20433;-73
2023/06/08 05:22:46;;;;;;;1999.90;999.90;;;18.00;99.90;;;;;;5047201;28;20870;-73
2023/06/08 05:25:14;;;;;;;1999.90;999.90;;;17.80;99.90;;;;;;5045008;28;20433;-75
2023/06/08 05:27:41;;;;;;;1999.90;999.90;;;18.00;99.90;;;;;;5045803;28;20433;-72
2023/06/08 05:30:08;;;;;;;1999.90;999.90;;;18.00;99.90;;;;;;5045432;28;20428;-73
2023/06/08 05:32:35;;;;;;;1999.90;999.90;;;18.10;99.90;;;;;;5045823;28;20433;-75
2023/06/08 05:35:02;;;;;;;1999.90;999.90;;;18.30;99.90;;;;;;5045659;28;20429;-73
2023/06/08 05:37:28;;;;;;;1999.90;999.90;;;18.20;99.90;;;;;;5046924;28;20429;-73
2023/06/08 05:39:55;;;;;;;1999.90;999.90;;;18.10;99.90;;;;;;5047414;28;20772;-73
2023/06/08 05:42:23;;;;;;;1999.90;999.90;;;18.00;99.90;;;;;;5047878;28;20489;-75
2023/06/08 05:44:50;;;;;;;1999.90;999.90;;;18.10;99.90;;;;;;5047151;28;20487;-73
2023/06/08 05:47:17;;;;;;;1999.90;999.90;;;18.20;99.90;;;;;;5046557;28;20467;-73
2023/06/08 05:49:43;;;;;;;1999.90;999.90;;;18.20;99.90;;;;;;5046344;28;20437;-71
2023/06/08 05:52:10;;;;;;;1999.90;999.90;;;18.10;99.90;;;;;;5056602;28;20429;-73
2023/06/08 05:54:37;;;;;;;1999.90;999.90;;;18.20;99.90;;;;;;5063895;28;20441;-75
2023/06/08 05:57:04;;;;;;;1999.90;999.90;;;18.30;99.90;;;;;;5063606;28;20433;-73
2023/06/08 05:59:32;;;;;;;1999.90;999.90;;;18.20;99.90;;;;;;5054600;28;20433;-73
2023/06/08 06:01:58;;;;;;;1999.90;999.90;;;18.10;99.90;;;;;;5048205;28;20492;-70
2023/06/08 06:04:25;;;;;;;1999.90;999.90;;;18.40;99.90;;;;;;5070145;22;20433;-71
2023/06/08 06:06:52;;;;;;;1999.90;999.90;;;18.40;99.90;;;;;;5045489;28;20433;-72
2023/06/08 06:09:18;;;;;;;1999.90;999.90;;;18.10;99.90;;;;;;5039975;28;20435;-71
2023/06/08 06:11:47;;;;;;;1999.90;999.90;;;18.10;99.90;;;;;;5037972;28;20431;-71
2023/06/08 06:14:13;;;;;;;1999.90;999.90;;;18.20;99.90;;;;;;5038562;28;20437;-72
2023/06/08 06:16:42;;;;;;;1999.90;999.90;;;18.30;99.90;;;;;;5019748;28;20434;-71
2023/06/08 06:19:09;;;;;;;1999.90;999.90;;;18.50;99.90;;;;;;5026702;28;20517;-71
2023/06/08 06:21:36;;;;;;;1999.90;999.90;;;18.40;99.90;;;;;;5020224;28;20437;-72
2023/06/08 06:24:03;;;;;;;1999.90;999.90;;;18.30;99.90;;;;;;5015399;28;21000;-72
2023/06/08 06:26:30;;;;;;;1999.90;999.90;;;18.40;99.90;;;;;;5021696;28;20430;-71
2023/06/08 06:28:56;;;;;;;1999.90;999.90;;;18.30;99.90;;;;;;5027506;28;20921;-72
2023/06/08 06:31:23;;;;;;;1999.90;999.90;;;18.30;99.90;;;;;;5024653;28;20504;-72
2023/06/08 06:33:51;;;;;;;1999.90;999.90;;;18.10;99.90;;;;;;5024332;28;20444;-71
2023/06/08 06:36:17;;;;;;;1999.90;999.90;;;18.00;99.90;;;;;;5031074;28;20809;-72
2023/06/08 06:38:45;;;;;;;1999.90;999.90;;;17.90;99.90;;;;;;5013710;28;21032;-67
2023/06/08 06:41:11;;;;;;;1999.90;999.90;;;17.70;99.90;;;;;;5013970;28;20429;-68
2023/06/08 06:43:38;;;;;;;1999.90;999.90;;;17.90;99.90;;;;;;5020809;28;20441;-71
2023/06/08 06:46:05;;;;;;;1999.90;999.90;;;18.10;99.90;;;;;;5023416;28;20510;-71
2023/06/08 06:48:31;;;;;;;1999.90;999.90;;;18.30;99.90;;;;;;5020929;28;20444;-71
2023/06/08 06:50:59;;;;;;;1999.90;999.90;;;18.50;99.90;;;;;;5020336;28;20960;-71
2023/06/08 06:53:26;;;;;;;1999.90;999.90;;;18.60;99.90;;;;;;5024068;28;20435;-71
2023/06/08 06:55:53;;;;;;;1999.90;999.90;;;18.40;99.90;;;;;;5014096;28;20494;-71
2023/06/08 06:58:20;;;;;;;1999.90;999.90;;;18.40;99.90;;;;;;5019365;28;20920;-71
2023/06/08 07:00:46;;;;;;;1999.90;999.90;;;18.30;99.90;;;;;;5025758;28;20428;-71
2023/06/08 07:03:13;;;;;;;1999.90;999.90;;;18.30;99.90;;;;;;5026840;28;20488;-71
2023/06/08 07:05:39;;;;;;;1999.90;999.90;;;18.20;99.90;;;;;;5026859;28;20441;-71
2023/06/08 07:08:07;;;;;;;1999.90;999.90;;;18.10;99.90;;;;;;5017636;28;20431;-71
2023/06/08 07:10:36;;;;;;;1999.90;999.90;;;18.20;99.90;;;;;;5021926;28;20428;-72
2023/06/08 07:13:03;;;;;;;1999.90;999.90;;;18.10;99.90;;;;;;5028223;28;20443;-71
2023/06/08 07:15:30;;;;;;;1999.90;999.90;;;17.90;99.90;;;;;;5023616;28;20520;-71
2023/06/08 07:17:56;;;;;;;1999.90;999.90;;;17.90;99.90;;;;;;5021801;28;20435;-71
2023/06/08 07:20:23;;;;;;;1999.90;999.90;;;17.90;99.90;;;;;;5023175;28;20435;-71
2023/06/08 07:22:49;;;;;;;1999.90;999.90;;;18.10;99.90;;;;;;5020519;28;20498;-71
2023/06/08 07:25:17;;;;;;;1999.90;999.90;;;18.10;99.90;;;;;;5018975;28;20435;-72
2023/06/08 07:27:45;;;;;;;1999.90;999.90;;;18.30;99.90;;;;;;5020072;28;20433;-72
2023/06/08 07:30:13;;;;;;;1999.90;999.90;;;18.30;99.90;;;;;;5031501;28;20829;-68
2023/06/08 07:32:40;;;;;;;1999.90;999.90;;;18.40;99.90;;;;;;5042620;28;20425;-72
2023/06/08 07:35:07;;;;;;;1999.90;999.90;;;18.30;99.90;;;;;;5047491;28;20446;-72
2023/06/08 07:37:34;;;;;;;1999.90;999.90;;;18.10;99.90;;;;;;5050586;28;20488;-71
2023/06/08 07:40:01;;;;;;;1999.90;999.90;;;18.20;99.90;;;;;;5047171;28;20471;-70
2023/06/08 07:42:29;;;;;;;1999.90;999.90;;;18.10;99.90;;;;;;5030532;28;20439;-70
2023/06/08 07:44:55;;;;;;;1999.90;999.90;;;18.30;99.90;;;;;;5034733;28;20484;-72
2023/06/08 07:47:22;;;;;;;1999.90;999.90;;;18.30;99.90;;;;;;5036369;28;20435;-71
2023/06/08 07:49:48;;;;;;;1999.90;999.90;;;18.20;99.90;;;;;;5051564;28;20778;-72
2023/06/08 07:52:15;;;;;;;1999.90;999.90;;;18.40;99.90;;;;;;5051545;28;20952;-70
2023/06/08 07:54:42;;;;;;;1999.90;999.90;;;18.40;99.90;;;;;;5047567;28;20435;-72
2023/06/08 07:57:08;;;;;;;1999.90;999.90;;;18.20;99.90;;;;;;5046296;28;20424;-69
2023/06/08 07:59:36;;;;;;;1999.90;999.90;;;18.30;99.90;;;;;;5051370;28;20428;-71
2023/06/08 08:02:05;;;;;;;1999.90;999.90;;;18.70;99.90;;;;;;5051348;28;20433;-69
2023/06/08 08:04:32;;;;;;;1999.90;999.90;;;18.90;99.90;;;;;;5051311;28;20504;-69
2023/06/08 08:06:59;;;;;;;1999.90;999.90;;;18.80;99.90;;;;;;5034609;28;20510;-72
2023/06/08 08:09:25;;;;;;;1999.90;999.90;;;18.60;99.90;;;;;;5017550;28;20893;-70
2023/06/08 08:11:52;;;;;;;1999.90;999.90;;;18.80;99.90;;;;;;5028709;28;20439;-70
2023/06/08 08:14:18;;;;;;;1999.90;999.90;;;18.80;99.90;;;;;;5037819;28;20436;-69
2023/06/08 08:16:46;;;;;;;1999.90;999.90;;;18.90;99.90;;;;;;5019855;28;20467;-71
2023/06/08 08:19:13;;;;;;;1999.90;999.90;;;19.10;99.90;;;;;;5011112;28;20466;-70
2023/06/08 08:21:40;;;;;;;1999.90;999.90;;;18.90;99.90;;;;;;5010852;28;20859;-71
2023/06/08 08:24:06;;;;;;;1999.90;999.90;;;19.00;99.90;;;;;;5019366;28;20458;-69
2023/06/08 08:26:34;;;;;;;1999.90;999.90;;;18.90;99.90;;;;;;5049001;28;20773;-71
2023/06/08 08:29:02;;;;;;;1999.90;999.90;;;19.00;99.90;;;;;;5049753;28;22502;-71
2023/06/08 08:31:29;;;;;;;1999.90;999.90;;;18.80;99.90;;;;;;5050479;28;20440;-70
2023/06/08 08:33:57;;;;;;;1999.90;999.90;;;19.10;99.90;;;;;;5051033;28;20478;-71
2023/06/08 08:36:23;;;;;;;1999.90;999.90;;;19.10;99.90;;;;;;5050669;28;20483;-70
2023/06/08 08:38:50;;;;;;;1999.90;999.90;;;19.30;99.90;;;;;;5045336;28;20438;-73
2023/06/08 08:41:21;;;;;;;1999.90;999.90;;;19.70;99.90;;;;;;5046130;28;20483;-70
2023/06/08 08:43:50;;;;;;;1999.90;999.90;;;19.80;99.90;;;;;;5050797;28;20416;-69
2023/06/08 08:46:18;;;;;;;1999.90;999.90;;;20.20;99.90;;;;;;5016119;28;20437;-70
2023/06/08 08:48:45;;;;;;;1999.90;999.90;;;20.40;99.90;;;;;;5012523;28;20432;-67
2023/06/08 08:51:19;;;;;;;1999.90;999.90;;;20.70;99.90;;;;;;5027732;28;20810;-69
2023/06/08 08:53:47;;;;;;;1999.90;999.90;;;20.70;99.90;;;;;;5025432;28;20430;-70
2023/06/08 08:56:15;;;;;;;1999.90;999.90;;;20.80;99.90;;;;;;5019529;28;20680;-69
2023/06/08 08:58:43;;;;;;;1999.90;999.90;;;20.90;99.90;;;;;;5017381;28;20431;-69
2023/06/08 09:01:10;;;;;;;1999.90;999.90;;;21.10;99.90;;;;;;5008894;28;20561;-70
2023/06/08 09:03:37;;;;;;;1999.90;999.90;;;21.00;99.90;;;;;;5025689;28;20522;-68
2023/06/08 09:06:04;;;;;;;1999.90;999.90;;;21.10;99.90;;;;;;5015618;28;20488;-70
2023/06/08 09:08:32;;;;;;;1999.90;999.90;;;21.30;99.90;;;;;;5022127;28;20436;-69
2023/06/08 09:11:03;;;;;;;1999.90;999.90;;;21.50;99.90;;;;;;5014118;28;20493;-70
2023/06/08 09:13:31;;;;;;;1999.90;999.90;;;21.00;99.90;;;;;;5021030;28;20440;-70
2023/06/08 09:16:07;;;;;;;1999.90;999.90;;;21.20;99.90;;;;;;5015395;28;20488;-69
2023/06/08 09:18:34;;;;;;;1999.90;999.90;;;21.20;99.90;;;;;;5012840;28;20433;-69
2023/06/08 09:21:19;;;;;;;1999.90;999.90;;;21.40;99.90;;;;;;5019129;28;20481;-69
2023/06/08 09:24:03;;;;;;;1999.90;999.90;;;21.50;99.90;;;;;;5020457;28;20494;-67
2023/06/08 09:26:32;;;;;;;1999.90;999.90;;;21.90;99.90;;;;;;5012341;28;20457;-70
2023/06/08 09:29:00;;;;;;;1999.90;999.90;;;21.90;99.90;;;;;;5010971;28;20807;-70
2023/06/08 09:31:29;;;;;;;1999.90;999.90;;;22.20;99.90;;;;;;5013024;28;20440;-70
2023/06/08 09:34:05;;;;;;;1999.90;999.90;;;22.30;99.90;;;;;;5020251;28;20442;-70
2023/06/08 09:36:35;;;;;;;1999.90;999.90;;;22.20;99.90;;;;;;5020574;28;20436;-70
2023/06/08 09:39:05;;;;;;;1999.90;999.90;;;22.40;99.90;;;;;;5010931;28;20530;-70
2023/06/08 09:41:32;;;;;;;1999.90;999.90;;;22.20;99.90;;;;;;5019330;28;20427;-69
2023/06/08 09:43:59;;;;;;;1999.90;999.90;;;22.20;99.90;;;;;;5018804;28;20810;-71
2023/06/08 09:46:34;;;;;;;1999.90;999.90;;;22.40;99.90;;;;;;5013694;28;20436;-72
2023/06/08 09:49:05;;;;;;;1999.90;999.90;;;22.80;99.90;;;;;;5022802;28;20496;-72
2023/06/08 09:51:35;;;;;;;1999.90;999.90;;;23.00;99.90;;;;;;5025035;28;20920;-71
2023/06/08 09:54:02;;;;;;;1999.90;999.90;;;23.30;99.90;;;;;;5015327;28;20428;-72
2023/06/08 09:56:31;;;;;;;1999.90;999.90;;;23.40;99.90;;;;;;5018635;28;20927;-72
2023/06/08 09:59:02;;;;;;;1999.90;999.90;;;23.40;99.90;;;;;;5011991;28;20929;-71
2023/06/08 10:01:35;;;;;;;1999.90;999.90;;;23.60;99.90;;;;;;5024405;28;20484;-73
2023/06/08 10:04:12;;;;;;;1999.90;999.90;;;23.70;99.90;;;;;;5026986;28;20423;-74
2023/06/08 10:06:40;;;;;;;1999.90;999.90;;;23.90;99.90;;;;;;5023145;28;21006;-73
2023/06/08 10:09:11;;;;;;;1999.90;999.90;;;24.30;99.90;;;;;;5014968;28;20428;-73
2023/06/08 10:11:40;;;;;;;1999.90;999.90;;;24.70;99.90;;;;;;5017183;28;20443;-76
2023/06/08 10:14:09;;;;;;;1999.90;999.90;;;24.10;99.90;;;;;;5026650;28;20482;-71
2023/06/08 10:16:37;;;;;;;1999.90;999.90;;;23.80;99.90;;;;;;5033523;28;20436;-71
2023/06/08 10:19:03;;;;;;;1999.90;999.90;;;23.90;99.90;;;;;;5053130;28;20417;-71
2023/06/08 10:21:30;;;;;;;1999.90;999.90;;;24.10;99.90;;;;;;5045159;28;20484;-70
2023/06/08 10:23:59;;;;;;;1999.90;999.90;;;23.60;99.90;;;;;;5020598;28;21049;-72
2023/06/08 10:26:27;;;;;;;1999.90;999.90;;;23.60;99.90;;;;;;5018106;28;20441;-71
2023/06/08 10:29:10;;;;;;;1999.90;999.90;;;24.30;99.90;;;;;;5016868;28;20767;-75
2023/06/08 10:31:40;;;;;;;1999.90;999.90;;;24.50;99.90;;;;;;5029662;28;20500;-71
2023/06/08 10:34:08;;;;;;;1999.90;999.90;;;24.90;99.90;;;;;;5019823;28;20424;-69
2023/06/08 10:36:39;;;;;;;1999.90;999.90;;;25.10;99.90;;;;;;5013408;28;20926;-72
2023/06/08 10:39:10;;;;;;;1999.90;999.90;;;25.30;99.90;;;;;;5013075;28;20427;-72
2023/06/08 10:41:44;;;;;;;1999.90;999.90;;;25.40;99.90;;;;;;5013046;28;20847;-72
2023/06/08 10:44:29;;;;;;;1999.90;999.90;;;25.80;99.90;;;;;;5016467;28;20426;-72
2023/06/08 10:47:00;;;;;;;1999.90;999.90;;;26.00;99.90;;;;;;5034553;28;20444;-73
2023/06/08 10:49:30;;;;;;;1999.90;999.90;;;26.10;99.90;;;;;;5052721;28;20449;-72
2023/06/08 10:51:59;;;;;;;1999.90;999.90;;;25.80;99.90;;;;;;5052514;28;20824;-71
2023/06/08 10:54:26;;;;;;;1999.90;999.90;;;25.90;99.90;;;;;;5052887;28;20425;-72
2023/06/08 10:56:56;;;;;;;1999.90;999.90;;;26.20;99.90;;;;;;5049422;28;20409;-72
2023/06/08 10:59:31;;;;;;;1999.90;999.90;;;26.40;99.90;;;;;;5045525;28;20432;-71
2023/06/08 11:02:01;;;;;;;1999.90;999.90;;;26.00;99.90;;;;;;5031158;28;20435;-72
2023/06/08 11:04:29;;;;;;;1999.90;999.90;;;25.80;99.90;;;;;;5032111;28;20489;-72
2023/06/08 11:06:59;;;;;;;1999.90;999.90;;;25.80;99.90;;;;;;5033004;28;20415;-73
2023/06/08 11:09:28;;;;;;;1999.90;999.90;;;25.90;99.70;;;;;;5032344;28;20415;-73
2023/06/08 11:11:54;;;;;;;1999.90;999.90;;;25.80;99.00;;;;;;5028764;28;20830;-69
2023/06/08 11:14:21;;;;;;;1999.90;999.90;;;26.10;97.40;;;;;;5052464;28;20559;-71
2023/06/08 11:16:54;;;;;;;1999.90;999.90;;;26.20;97.80;;;;;;5052068;28;20826;-71
2023/06/08 11:19:21;;;;;;;1999.90;999.90;;;26.00;98.50;;;;;;5051337;28;20492;-71
2023/06/08 11:21:51;;;;;;;1999.90;999.90;;;25.90;98.80;;;;;;5052092;28;20425;-71
2023/06/08 11:24:18;;;;;;;1999.90;999.90;;;26.20;99.90;;;;;;5025582;28;20479;-69
2023/06/08 11:26:45;;;;;;;1999.90;999.90;;;26.30;99.60;;;;;;5030865;28;20435;-72
2023/06/08 11:29:12;;;;;;;1999.90;999.90;;;26.20;98.90;;;;;;5045767;28;20451;-71
2023/06/08 11:31:41;;;;;;;1999.90;999.90;;;26.40;99.10;;;;;;5051756;28;20421;-69
2023/06/08 11:34:13;;;;;;;1999.90;999.90;;;26.40;97.50;;;;;;5052405;28;20456;-73
2023/06/08 11:36:42;;;;;;;1999.90;999.90;;;26.00;98.70;;;;;;5052258;28;20503;-73
2023/06/08 11:39:08;;;;;;;1999.90;999.90;;;25.80;97.60;;;;;;5051724;28;20504;-70
2023/06/08 11:41:35;;;;;;;1999.90;999.90;;;25.80;97.40;;;;;;5047535;28;20452;-73
2023/06/08 11:44:02;;;;;;;1999.90;999.90;;;26.00;97.80;;;;;;5052035;28;20451;-71
2023/06/08 11:46:30;;;;;;;1999.90;999.90;;;26.20;95.70;;;;;;5051952;28;20483;-70
2023/06/08 11:49:10;;;;;;;1999.90;999.90;;;26.50;96.20;;;;;;5051541;28;20517;-71
2023/06/08 11:51:46;;;;;;;1999.90;999.90;;;26.40;96.70;;;;;;5051615;28;20413;-72
2023/06/08 11:54:13;;;;;;;1999.90;999.90;;;26.40;98.70;;;;;;5045916;28;20433;-71
2023/06/08 11:56:41;;;;;;;1999.90;999.90;;;26.60;98.10;;;;;;5051156;28;20907;-72
2023/06/08 11:59:08;;;;;;;1999.90;999.90;;;26.70;97.60;;;;;;5051546;28;20417;-69
2023/06/08 12:01:37;;;;;;;1999.90;999.90;;;26.80;96.90;;;;;;5051170;28;20452;-71
2023/06/08 12:04:14;;;;;;;1999.90;999.90;;;26.60;95.50;;;;;;5043224;28;20444;-70
2023/06/08 12:06:41;;;;;;;1999.90;999.90;;;26.30;97.20;;;;;;5060633;22;20434;-75